Time;durP1;ratioP1;P1;durP2;ratioP2;P2;SDS_P1;SDS_P2;PMS_P1;PMS_P2;Temp;Humidity;BMP_temperature;BMP_pressure;BME280_temperature;BME280_humidity;BME280_pressure;Samples;Min_cycle;Max_cycle;Signal;HPM_P1;HPM_P2
2022/07/14 00:02:18;;;;;;;0.20;0.20;;;15.40;99.90;;;;;;6182058;23;20110;-81
2022/07/14 00:04:44;;;;;;;0.10;0.10;;;15.30;99.90;;;;;;6181338;23;20083;-81
2022/07/14 00:07:12;;;;;;;0.10;0.10;;;15.30;99.90;;;;;;6207123;23;20016;-81
2022/07/14 00:09:38;;;;;;;0.20;0.20;;;15.30;99.90;;;;;;6207738;23;20091;-81
2022/07/14 00:12:04;;;;;;;0.10;0.10;;;15.30;99.90;;;;;;6206848;23;20384;-81
2022/07/14 00:14:30;;;;;;;0.20;0.20;;;15.20;99.90;;;;;;6208715;23;20020;-81
2022/07/14 00:16:55;;;;;;;0.10;0.10;;;15.20;99.90;;;;;;6182835;23;20040;-82
2022/07/14 00:19:21;;;;;;;0.20;0.20;;;15.20;99.90;;;;;;6183168;23;20162;-81
2022/07/14 00:21:47;;;;;;;0.10;0.10;;;15.20;99.90;;;;;;6210105;23;20019;-82
2022/07/14 00:24:13;;;;;;;0.10;0.10;;;15.20;99.90;;;;;;6182840;23;20016;-81
2022/07/14 00:26:39;;;;;;;0.13;0.13;;;15.20;99.90;;;;;;6208784;23;20012;-82
2022/07/14 00:29:08;;;;;;;0.10;0.10;;;15.30;99.90;;;;;;6208688;23;20871;-81
2022/07/14 00:31:34;;;;;;;0.10;0.10;;;15.10;99.90;;;;;;6210577;23;20016;-81
2022/07/14 00:34:00;;;;;;;0.20;0.20;;;15.10;99.90;;;;;;6183304;23;20031;-82
2022/07/14 00:36:27;;;;;;;0.10;0.10;;;15.10;99.90;;;;;;6182339;23;20036;-81
2022/07/14 00:38:56;;;;;;;0.10;0.10;;;15.10;99.90;;;;;;6184079;23;20146;-81
2022/07/14 00:41:28;;;;;;;0.10;0.10;;;15.10;99.90;;;;;;6182189;23;20012;-81
2022/07/14 00:43:56;;;;;;;0.20;0.20;;;15.10;99.90;;;;;;6183474;23;20020;-82
2022/07/14 00:46:22;;;;;;;0.10;0.10;;;15.10;99.90;;;;;;6206523;23;20028;-81
2022/07/14 00:48:47;;;;;;;0.10;0.10;;;15.10;99.90;;;;;;6210813;23;20013;-80
2022/07/14 00:51:13;;;;;;;0.10;0.10;;;15.10;99.90;;;;;;6184337;23;20023;-81
2022/07/14 00:53:39;;;;;;;0.20;0.20;;;15.00;99.90;;;;;;6183270;23;20021;-81
2022/07/14 00:56:08;;;;;;;0.10;0.10;;;15.00;99.90;;;;;;6208811;23;20021;-81
2022/07/14 00:58:33;;;;;;;0.10;0.10;;;15.00;99.90;;;;;;6210248;23;20020;-81
2022/07/14 01:00:59;;;;;;;0.10;0.10;;;15.00;99.90;;;;;;6211022;23;20433;-81
2022/07/14 01:03:25;;;;;;;0.10;0.10;;;15.00;99.90;;;;;;6207875;23;20818;-81
2022/07/14 01:05:50;;;;;;;0.20;0.20;;;15.00;99.90;;;;;;6209999;23;20027;-81
2022/07/14 01:08:16;;;;;;;0.10;0.10;;;15.00;99.90;;;;;;6209682;23;20039;-81
2022/07/14 01:10:42;;;;;;;0.10;0.10;;;15.00;99.90;;;;;;6209410;23;20028;-81
2022/07/14 01:13:08;;;;;;;0.20;0.20;;;15.00;99.90;;;;;;6208828;23;20021;-81
2022/07/14 01:15:36;;;;;;;0.20;0.20;;;15.00;99.90;;;;;;6181172;23;20030;-81
2022/07/14 01:18:05;;;;;;;0.10;0.10;;;14.90;99.90;;;;;;6182300;23;20067;-81
2022/07/14 01:20:31;;;;;;;0.10;0.10;;;15.00;99.90;;;;;;6183141;23;20008;-80
2022/07/14 01:22:56;;;;;;;0.15;0.15;;;14.90;99.90;;;;;;6184132;23;20453;-81
2022/07/14 01:25:22;;;;;;;0.17;0.17;;;14.90;99.90;;;;;;6208114;23;20021;-81
2022/07/14 01:27:48;;;;;;;0.20;0.20;;;14.90;99.90;;;;;;6181308;23;20027;-81
2022/07/14 01:30:15;;;;;;;0.13;0.13;;;14.90;99.90;;;;;;6209663;23;20179;-80
2022/07/14 01:32:40;;;;;;;0.20;0.20;;;14.90;99.90;;;;;;6207906;23;20021;-80
2022/07/14 01:35:07;;;;;;;0.10;0.10;;;14.80;99.90;;;;;;6181910;23;20096;-80
2022/07/14 01:37:33;;;;;;;0.20;0.20;;;14.80;99.90;;;;;;6182853;23;20020;-80
2022/07/14 01:40:00;;;;;;;0.10;0.10;;;14.80;99.90;;;;;;6207628;23;20028;-80
2022/07/14 01:42:26;;;;;;;0.20;0.20;;;14.90;99.90;;;;;;6182908;23;20111;-80
2022/07/14 01:44:52;;;;;;;0.10;0.10;;;14.80;99.90;;;;;;6206130;23;20521;-80
2022/07/14 01:47:20;;;;;;;0.10;0.10;;;14.80;99.90;;;;;;6182734;23;20103;-81
2022/07/14 01:49:46;;;;;;;0.20;0.20;;;14.90;99.90;;;;;;6209464;23;20118;-80
2022/07/14 01:52:12;;;;;;;0.10;0.10;;;14.70;99.90;;;;;;6182416;23;20028;-80
2022/07/14 01:54:38;;;;;;;0.20;0.20;;;14.70;99.90;;;;;;6208191;23;20008;-80
2022/07/14 01:57:06;;;;;;;0.13;0.13;;;14.60;99.90;;;;;;6182510;23;20048;-80
2022/07/14 01:59:31;;;;;;;0.20;0.20;;;14.70;99.90;;;;;;6208170;23;20024;-80
2022/07/14 02:01:57;;;;;;;0.10;0.10;;;14.60;99.90;;;;;;6210022;23;20016;-80
2022/07/14 02:04:23;;;;;;;0.20;0.20;;;14.60;99.90;;;;;;6183030;23;20016;-80
2022/07/14 02:06:53;;;;;;;0.13;0.13;;;14.60;99.90;;;;;;6182126;23;20016;-80
2022/07/14 02:09:20;;;;;;;0.10;0.10;;;14.60;99.90;;;;;;6209364;23;20023;-81
2022/07/14 02:14:33;;;;;;;0.10;0.10;;;14.60;99.90;;;;;;6207826;23;20017;-80
2022/07/14 02:16:59;;;;;;;0.20;0.20;;;14.50;99.90;;;;;;6182090;23;20129;-80
2022/07/14 02:19:26;;;;;;;0.10;0.10;;;14.50;99.90;;;;;;6208197;23;20043;-81
2022/07/14 02:21:53;;;;;;;0.20;0.20;;;14.50;99.90;;;;;;6180291;23;20020;-80
2022/07/14 02:24:22;;;;;;;0.20;0.20;;;14.50;99.90;;;;;;6182217;23;20142;-80
2022/07/14 02:26:52;;;;;;;0.20;0.20;;;14.50;99.90;;;;;;6182700;23;20020;-80
2022/07/14 02:29:19;;;;;;;0.20;0.20;;;14.50;99.90;;;;;;6180960;23;20024;-81
2022/07/14 02:31:45;;;;;;;0.10;0.10;;;14.40;99.90;;;;;;6182557;23;20038;-80
2022/07/14 02:34:20;;;;;;;0.10;0.10;;;14.40;99.90;;;;;;6207431;23;20845;-81
2022/07/14 02:36:47;;;;;;;0.20;0.20;;;14.40;99.90;;;;;;6183759;23;20020;-81
2022/07/14 02:39:13;;;;;;;0.20;0.20;;;14.40;99.90;;;;;;6180759;23;20505;-80
2022/07/14 02:41:39;;;;;;;0.20;0.20;;;14.40;99.90;;;;;;6209048;23;20019;-81
2022/07/14 02:44:05;;;;;;;0.10;0.10;;;14.40;99.90;;;;;;6179714;23;20794;-80
2022/07/14 02:46:30;;;;;;;0.10;0.10;;;14.30;99.90;;;;;;6209923;23;20099;-81
2022/07/14 02:48:56;;;;;;;0.20;0.20;;;14.30;99.90;;;;;;6180509;23;20032;-80
2022/07/14 02:51:22;;;;;;;0.15;0.15;;;14.30;99.90;;;;;;6208777;23;20286;-80
2022/07/14 02:53:47;;;;;;;0.10;0.10;;;14.30;99.90;;;;;;6208879;23;20017;-81
2022/07/14 02:56:13;;;;;;;0.10;0.10;;;14.20;99.90;;;;;;6180961;23;20100;-81
2022/07/14 02:58:39;;;;;;;0.10;0.10;;;14.20;99.90;;;;;;6180001;23;20088;-81
2022/07/14 03:01:06;;;;;;;0.20;0.20;;;14.40;99.90;;;;;;6209086;23;20039;-80
2022/07/14 03:03:32;;;;;;;0.20;0.20;;;14.20;99.90;;;;;;6207219;23;20338;-81
2022/07/14 03:06:08;;;;;;;0.20;0.20;;;14.20;99.90;;;;;;6208545;23;20017;-81
2022/07/14 03:08:33;;;;;;;0.20;0.20;;;14.10;99.90;;;;;;6208047;23;20153;-81
2022/07/14 03:10:59;;;;;;;0.10;0.10;;;14.20;99.90;;;;;;6181014;23;20191;-81
2022/07/14 03:13:25;;;;;;;0.10;0.10;;;14.10;99.90;;;;;;6180293;23;20460;-80
2022/07/14 03:15:50;;;;;;;0.20;0.20;;;14.30;99.90;;;;;;6209597;23;20016;-80
2022/07/14 03:18:16;;;;;;;0.20;0.20;;;14.10;99.90;;;;;;6208160;23;20099;-80
2022/07/14 03:20:44;;;;;;;0.10;0.10;;;14.10;99.90;;;;;;6182596;23;20024;-81
2022/07/14 03:23:10;;;;;;;0.20;0.20;;;14.10;99.90;;;;;;6204977;23;20021;-81
2022/07/14 03:25:35;;;;;;;0.20;0.20;;;14.10;99.90;;;;;;6179667;23;20027;-80
2022/07/14 03:28:01;;;;;;;0.10;0.10;;;14.10;99.90;;;;;;6208316;23;20016;-80
2022/07/14 03:30:27;;;;;;;0.20;0.20;;;14.00;99.90;;;;;;6179863;23;20473;-81
2022/07/14 03:32:56;;;;;;;0.10;0.10;;;14.00;99.90;;;;;;6180863;23;20778;-80
2022/07/14 03:35:21;;;;;;;0.10;0.10;;;14.10;99.90;;;;;;6181328;23;20020;-80
2022/07/14 03:37:47;;;;;;;0.10;0.10;;;14.00;99.90;;;;;;6207399;23;20019;-80
2022/07/14 03:40:13;;;;;;;0.20;0.20;;;14.00;99.90;;;;;;6181556;23;20047;-80
2022/07/14 03:42:38;;;;;;;0.10;0.10;;;14.00;99.90;;;;;;6182186;23;20047;-81
2022/07/14 03:45:04;;;;;;;0.10;0.10;;;13.90;99.90;;;;;;6205368;23;20402;-80
2022/07/14 03:47:30;;;;;;;0.13;0.13;;;13.90;99.90;;;;;;6207162;23;20017;-80
2022/07/14 03:49:55;;;;;;;0.20;0.20;;;13.90;99.90;;;;;;6206832;23;20417;-81
2022/07/14 03:52:21;;;;;;;0.10;0.10;;;13.90;99.90;;;;;;6179803;23;20095;-81
2022/07/14 03:54:47;;;;;;;0.20;0.20;;;13.90;99.90;;;;;;6180737;23;20078;-80
2022/07/14 03:57:13;;;;;;;0.20;0.20;;;13.90;99.90;;;;;;6181502;23;20012;-81
2022/07/14 03:59:41;;;;;;;0.10;0.10;;;13.90;99.90;;;;;;6179594;23;20020;-81
2022/07/14 04:02:08;;;;;;;0.20;0.20;;;14.00;99.90;;;;;;6180038;23;20020;-81
2022/07/14 04:04:34;;;;;;;0.17;0.17;;;13.90;99.90;;;;;;6207332;23;20040;-81
2022/07/14 04:07:00;;;;;;;0.10;0.10;;;13.90;99.90;;;;;;6180866;23;20484;-81
2022/07/14 04:09:28;;;;;;;0.10;0.10;;;13.90;99.90;;;;;;6206731;23;20086;-81
2022/07/14 04:11:54;;;;;;;0.10;0.10;;;14.00;99.90;;;;;;6182868;23;20434;-81
2022/07/14 04:14:20;;;;;;;0.20;0.20;;;14.00;99.90;;;;;;6205892;23;20048;-81
2022/07/14 04:16:45;;;;;;;0.10;0.10;;;14.00;99.90;;;;;;6181541;23;20464;-81
2022/07/14 04:19:11;;;;;;;0.10;0.10;;;14.00;99.90;;;;;;6207821;23;20020;-82
2022/07/14 04:21:37;;;;;;;0.20;0.20;;;14.00;99.90;;;;;;6178719;23;20016;-81
2022/07/14 04:24:03;;;;;;;0.10;0.10;;;14.00;99.90;;;;;;6208134;23;20437;-81
2022/07/14 04:26:32;;;;;;;0.10;0.10;;;14.00;99.90;;;;;;6208685;23;20036;-81
2022/07/14 04:28:58;;;;;;;0.20;0.20;;;14.00;99.90;;;;;;6180147;23;20139;-82
2022/07/14 04:31:24;;;;;;;0.17;0.17;;;14.10;99.90;;;;;;6208914;23;20366;-81
2022/07/14 04:33:49;;;;;;;0.10;0.10;;;14.10;99.90;;;;;;6207541;23;20333;-82
2022/07/14 04:36:16;;;;;;;0.20;0.20;;;14.20;99.90;;;;;;6208759;23;20024;-81
2022/07/14 04:38:42;;;;;;;0.10;0.10;;;14.10;99.90;;;;;;6207940;23;20056;-82
2022/07/14 04:41:08;;;;;;;0.10;0.10;;;14.20;99.90;;;;;;6180766;23;20013;-82
2022/07/14 04:43:33;;;;;;;0.10;0.10;;;14.20;99.90;;;;;;6180055;23;20119;-82
2022/07/14 04:45:59;;;;;;;0.20;0.20;;;14.20;99.90;;;;;;6182387;23;20047;-81
2022/07/14 04:48:25;;;;;;;0.20;0.20;;;14.30;99.90;;;;;;6180774;23;20052;-81
2022/07/14 04:53:36;;;;;;;0.10;0.10;;;14.30;99.90;;;;;;6208168;23;20103;-82
2022/07/14 04:56:03;;;;;;;0.10;0.10;;;14.30;99.90;;;;;;6208676;23;20353;-82
2022/07/14 04:58:30;;;;;;;0.20;0.20;;;14.40;99.90;;;;;;6207509;23;20472;-82
2022/07/14 05:00:58;;;;;;;0.10;0.10;;;14.40;99.90;;;;;;6181879;23;20449;-82
2022/07/14 05:03:25;;;;;;;0.10;0.10;;;14.60;99.90;;;;;;6183174;23;20021;-81
2022/07/14 05:05:51;;;;;;;0.13;0.13;;;14.50;99.90;;;;;;6183144;23;20091;-82
2022/07/14 05:08:16;;;;;;;0.10;0.10;;;14.70;99.90;;;;;;6183758;23;20043;-82
2022/07/14 05:10:42;;;;;;;0.10;0.10;;;14.70;99.90;;;;;;6208763;23;20017;-82
2022/07/14 05:13:07;;;;;;;0.10;0.10;;;14.70;99.90;;;;;;6181615;23;20013;-83
2022/07/14 05:15:33;;;;;;;0.20;0.20;;;14.80;99.90;;;;;;6183875;23;20110;-83
2022/07/14 05:17:59;;;;;;;0.20;0.20;;;14.80;99.90;;;;;;6183452;23;20519;-84
2022/07/14 05:20:24;;;;;;;0.10;0.10;;;15.00;99.90;;;;;;6182076;23;20032;-82
2022/07/14 05:22:51;;;;;;;0.20;0.20;;;15.00;99.90;;;;;;6182316;23;20108;-83
2022/07/14 05:25:16;;;;;;;0.10;0.10;;;15.10;99.90;;;;;;6183783;23;20013;-84
2022/07/14 05:27:42;;;;;;;0.20;0.20;;;15.10;99.90;;;;;;6211594;23;20070;-85
2022/07/14 05:30:09;;;;;;;0.10;0.10;;;15.20;99.90;;;;;;6181425;23;20095;-83
2022/07/14 05:32:36;;;;;;;0.10;0.10;;;15.20;99.90;;;;;;6183458;23;20442;-82
2022/07/14 05:35:09;;;;;;;0.20;0.20;;;15.30;99.90;;;;;;6182580;23;20029;-83
2022/07/14 05:37:34;;;;;;;0.20;0.20;;;15.30;99.90;;;;;;6209036;23;20016;-84
2022/07/14 05:40:03;;;;;;;0.10;0.10;;;15.30;99.90;;;;;;6211291;23;20012;-84
2022/07/14 05:42:29;;;;;;;0.17;0.17;;;15.30;99.90;;;;;;6184180;23;20020;-83
2022/07/14 05:44:55;;;;;;;0.20;0.20;;;15.30;99.90;;;;;;6207894;23;20357;-83
2022/07/14 05:47:23;;;;;;;0.20;0.20;;;15.40;99.90;;;;;;6183911;23;20024;-82
2022/07/14 05:49:49;;;;;;;0.20;0.20;;;15.40;99.90;;;;;;6209539;23;20012;-82
2022/07/14 05:52:15;;;;;;;0.10;0.10;;;15.50;99.90;;;;;;6210759;23;20012;-84
2022/07/14 05:54:41;;;;;;;0.10;0.10;;;15.60;99.90;;;;;;6183556;23;20108;-84
2022/07/14 05:57:09;;;;;;;0.20;0.20;;;15.60;99.90;;;;;;6184305;23;20009;-83
2022/07/14 05:59:35;;;;;;;0.20;0.20;;;15.60;99.90;;;;;;6208594;23;20017;-84
2022/07/14 06:02:01;;;;;;;0.20;0.20;;;15.70;99.90;;;;;;6181934;23;20051;-85
2022/07/14 06:04:27;;;;;;;0.20;0.20;;;15.70;99.90;;;;;;6206685;23;20012;-84
2022/07/14 06:06:52;;;;;;;0.13;0.13;;;15.70;99.90;;;;;;6180744;23;20471;-83
2022/07/14 06:09:18;;;;;;;0.10;0.10;;;15.80;99.90;;;;;;6208683;23;20135;-83
2022/07/14 06:11:45;;;;;;;0.10;0.10;;;15.90;99.90;;;;;;6182156;23;20024;-84
2022/07/14 06:14:11;;;;;;;0.17;0.17;;;16.00;99.90;;;;;;6181526;23;20066;-84
2022/07/14 06:16:36;;;;;;;0.13;0.13;;;15.90;99.90;;;;;;6183167;23;20016;-84
2022/07/14 06:19:03;;;;;;;0.20;0.20;;;16.00;99.90;;;;;;6206530;23;20017;-81
2022/07/14 06:21:29;;;;;;;0.20;0.20;;;16.00;99.90;;;;;;6178350;23;20020;-81
2022/07/14 06:23:54;;;;;;;0.20;0.20;;;16.00;99.90;;;;;;6177660;23;20028;-83
2022/07/14 06:26:20;;;;;;;0.10;0.10;;;16.20;99.90;;;;;;6203268;23;20052;-84
2022/07/14 06:28:46;;;;;;;0.10;0.10;;;16.30;99.90;;;;;;6203634;23;20023;-84
2022/07/14 06:31:13;;;;;;;0.10;0.10;;;16.30;99.90;;;;;;6179792;23;20021;-82
2022/07/14 06:33:39;;;;;;;0.10;0.10;;;16.50;99.90;;;;;;6177291;23;20017;-82
2022/07/14 06:36:06;;;;;;;0.10;0.10;;;16.50;99.90;;;;;;6209044;23;20062;-82
2022/07/14 06:38:32;;;;;;;0.17;0.17;;;16.50;99.90;;;;;;6206535;23;20019;-83
2022/07/14 06:40:58;;;;;;;0.10;0.10;;;16.60;99.90;;;;;;6176960;23;20345;-82
2022/07/14 06:43:23;;;;;;;0.20;0.20;;;16.60;99.90;;;;;;6177565;23;20456;-80
2022/07/14 06:45:49;;;;;;;0.20;0.20;;;16.60;99.90;;;;;;6179129;23;20051;-78
2022/07/14 06:48:15;;;;;;;0.10;0.10;;;16.70;99.90;;;;;;6177183;23;20362;-77
2022/07/14 06:50:40;;;;;;;0.13;0.13;;;16.70;99.90;;;;;;6206531;23;20089;-79
2022/07/14 06:53:07;;;;;;;0.20;0.20;;;16.80;99.90;;;;;;6205207;23;20021;-77
2022/07/14 06:55:33;;;;;;;0.10;0.10;;;16.80;99.90;;;;;;6205249;23;20119;-78
2022/07/14 06:57:59;;;;;;;0.20;0.20;;;16.80;99.90;;;;;;6204456;23;20017;-79
2022/07/14 07:00:24;;;;;;;0.20;0.20;;;17.00;99.90;;;;;;6206507;23;20087;-79
2022/07/14 07:02:50;;;;;;;0.17;0.17;;;17.00;99.90;;;;;;6202122;23;20047;-77
2022/07/14 07:08:00;;;;;;;0.10;0.10;;;17.10;99.90;;;;;;6206019;23;20311;-76
2022/07/14 07:10:27;;;;;;;0.10;0.10;;;17.20;99.90;;;;;;6181636;23;20517;-77
2022/07/14 07:12:53;;;;;;;0.13;0.13;;;17.20;99.90;;;;;;6182753;23;20066;-77
2022/07/14 07:15:20;;;;;;;0.10;0.10;;;17.20;99.90;;;;;;6208198;23;20026;-77
2022/07/14 07:17:45;;;;;;;0.20;0.20;;;17.20;99.90;;;;;;6182906;23;20016;-76
2022/07/14 07:20:14;;;;;;;0.17;0.17;;;17.30;99.90;;;;;;6209223;23;20078;-75
2022/07/14 07:22:40;;;;;;;0.20;0.20;;;17.30;99.90;;;;;;6179538;23;20061;-75
2022/07/14 07:25:07;;;;;;;0.20;0.20;;;17.20;99.90;;;;;;6182382;23;20091;-76
2022/07/14 07:27:33;;;;;;;0.20;0.20;;;17.30;99.90;;;;;;6209689;23;20549;-77
2022/07/14 07:30:00;;;;;;;0.10;0.10;;;17.30;99.90;;;;;;6181190;23;20012;-77
2022/07/14 07:32:29;;;;;;;0.10;0.10;;;17.30;99.90;;;;;;6210157;23;20024;-78
2022/07/14 07:34:58;;;;;;;0.20;0.20;;;17.50;99.90;;;;;;6208518;23;20311;-78
2022/07/14 07:37:23;;;;;;;0.10;0.10;;;17.70;99.90;;;;;;6180542;23;20365;-79
2022/07/14 07:39:49;;;;;;;0.15;0.15;;;17.60;99.90;;;;;;6209587;23;20035;-77
2022/07/14 07:42:15;;;;;;;0.20;0.20;;;17.60;99.90;;;;;;6210362;23;20080;-77
2022/07/14 07:44:43;;;;;;;0.10;0.10;;;17.70;99.90;;;;;;6207959;23;20017;-77
2022/07/14 07:47:09;;;;;;;0.10;0.10;;;17.70;99.90;;;;;;6182515;23;20022;-78
2022/07/14 07:49:34;;;;;;;0.20;0.20;;;17.80;99.90;;;;;;6179906;23;20024;-77
2022/07/14 07:52:01;;;;;;;0.20;0.20;;;17.80;99.90;;;;;;6182394;23;20289;-78
2022/07/14 07:54:28;;;;;;;0.20;0.20;;;17.90;99.90;;;;;;6181091;23;20021;-79
2022/07/14 07:56:55;;;;;;;0.20;0.20;;;18.00;99.90;;;;;;6182585;23;20410;-77
2022/07/14 07:59:21;;;;;;;0.20;0.20;;;17.90;99.90;;;;;;6206356;23;20475;-78
2022/07/14 08:01:47;;;;;;;0.10;0.10;;;18.00;99.90;;;;;;6210524;23;20040;-77
2022/07/14 08:04:14;;;;;;;0.20;0.20;;;18.10;99.90;;;;;;6210168;23;20406;-84
2022/07/14 08:06:40;;;;;;;0.13;0.13;;;18.10;99.90;;;;;;6181204;23;20028;-83
2022/07/14 08:09:10;;;;;;;0.10;0.10;;;18.30;99.90;;;;;;6208420;23;20199;-82
2022/07/14 08:11:40;;;;;;;0.15;0.15;;;18.30;99.90;;;;;;6182860;23;20017;-82
2022/07/14 08:14:47;;;;;;;0.13;0.13;;;18.40;99.90;;;;;;6209358;23;20044;-83
2022/07/14 08:16:54;;;;;;;0.20;0.20;;;18.40;99.90;;;;;;6183593;23;20021;-81
2022/07/14 08:19:19;;;;;;;0.10;0.10;;;18.50;99.90;;;;;;6208739;23;20096;-83
2022/07/14 08:49:40;;;;;;;0.13;0.13;;;18.70;99.90;;;;;;6174277;23;20016;-82
2022/07/14 08:56:27;;;;;;;0.20;0.20;;;18.80;99.90;;;;;;6209887;23;20032;-82
2022/07/14 08:59:54;;;;;;;0.20;0.20;;;19.10;99.90;;;;;;6121466;23;20020;-82
2022/07/14 09:11:28;;;;;;;0.13;0.13;;;19.30;99.90;;;;;;6208817;23;20482;-81
2022/07/14 09:13:53;;;;;;;0.20;0.20;;;19.30;99.90;;;;;;6208291;23;20074;-81
2022/07/14 09:16:21;;;;;;;0.10;0.10;;;19.40;99.90;;;;;;6204181;23;20020;-82
2022/07/14 09:26:51;;;;;;;0.20;0.20;;;19.40;99.90;;;;;;5945090;24;20096;-81
2022/07/14 09:29:23;;;;;;;0.10;0.10;;;19.50;99.90;;;;;;5905725;23;20059;-82
2022/07/14 09:31:49;;;;;;;0.10;0.10;;;19.50;99.90;;;;;;5979172;23;20031;-81
2022/07/14 09:34:44;;;;;;;0.20;0.20;;;19.40;99.90;;;;;;6145886;23;20123;-82
2022/07/14 09:37:17;;;;;;;0.10;0.10;;;19.50;99.90;;;;;;6194718;23;20358;-81
2022/07/14 09:39:51;;;;;;;0.20;0.20;;;19.40;99.90;;;;;;6211237;23;20024;-82
2022/07/14 09:42:17;;;;;;;0.20;0.20;;;19.50;99.90;;;;;;6208744;23;20013;-82
2022/07/14 09:44:43;;;;;;;0.10;0.10;;;19.50;99.90;;;;;;6206982;23;20017;-80
2022/07/14 09:47:09;;;;;;;0.10;0.10;;;19.60;99.90;;;;;;6209791;23;20047;-81
2022/07/14 09:49:37;;;;;;;0.13;0.13;;;19.50;99.90;;;;;;6207706;23;20024;-82
2022/07/14 09:52:05;;;;;;;0.10;0.10;;;19.70;99.90;;;;;;6208789;23;20099;-82
2022/07/14 09:54:45;;;;;;;0.10;0.10;;;19.80;99.90;;;;;;6208105;23;20020;-82
2022/07/14 09:57:14;;;;;;;0.20;0.20;;;19.80;99.90;;;;;;6209814;23;20008;-86
2022/07/14 09:59:54;;;;;;;0.20;0.20;;;19.90;99.90;;;;;;6206823;23;20021;-85
2022/07/14 10:02:29;;;;;;;0.10;0.10;;;20.00;99.90;;;;;;6209908;23;20087;-81
2022/07/14 10:05:07;;;;;;;0.20;0.20;;;19.90;99.90;;;;;;6209881;23;20021;-82
2022/07/14 10:07:36;;;;;;;0.20;0.20;;;19.90;99.90;;;;;;6209295;23;20013;-83
2022/07/14 10:10:08;;;;;;;0.20;0.20;;;19.90;99.90;;;;;;6208095;23;20020;-83
2022/07/14 10:12:38;;;;;;;0.20;0.20;;;20.00;99.90;;;;;;6208405;23;20076;-83
2022/07/14 10:15:06;;;;;;;0.13;0.13;;;20.00;99.90;;;;;;6208718;23;20036;-90
2022/07/14 10:17:35;;;;;;;0.20;0.20;;;20.00;99.90;;;;;;6216167;23;20454;-89
2022/07/14 10:20:06;;;;;;;0.20;0.20;;;20.00;99.90;;;;;;6208778;23;20040;-86
2022/07/14 10:22:32;;;;;;;;;;;20.10;99.90;;;;;;6212159;23;20021;-88
2022/07/14 10:24:58;;;;;;;0.20;0.20;;;20.20;99.90;;;;;;6211640;23;19991;-90
2022/07/14 10:27:26;;;;;;;0.10;0.10;;;20.20;99.90;;;;;;6214754;23;20119;-90
2022/07/14 10:29:53;;;;;;;0.20;0.20;;;20.20;99.90;;;;;;6208787;23;20017;-91
2022/07/14 10:32:40;;;;;;;0.20;0.20;;;20.20;99.90;;;;;;6209320;23;20155;-86
2022/07/14 10:35:41;;;;;;;0.20;0.20;;;20.30;99.90;;;;;;6215033;23;20119;-90
2022/07/14 10:38:25;;;;;;;0.20;0.20;;;20.40;99.90;;;;;;6211413;23;20067;-87
2022/07/14 10:41:05;;;;;;;0.20;0.20;;;20.50;99.90;;;;;;6212969;23;20373;-88
2022/07/14 10:43:53;;;;;;;0.20;0.20;;;20.60;99.90;;;;;;6221516;23;20089;-90
2022/07/14 10:46:45;;;;;;;0.20;0.20;;;20.60;99.90;;;;;;6211317;23;20055;-89
2022/07/14 10:49:12;;;;;;;0.20;0.20;;;20.60;99.90;;;;;;6218396;23;20016;-90
2022/07/14 10:51:48;;;;;;;0.20;0.20;;;20.50;99.90;;;;;;6221410;23;20013;-93
2022/07/14 10:54:34;;;;;;;0.20;0.20;;;20.40;99.90;;;;;;6220679;23;20013;-91
2022/07/14 10:57:17;;;;;;;0.20;0.20;;;20.30;99.90;;;;;;6222267;23;20051;-91
2022/07/14 10:59:44;;;;;;;0.13;0.13;;;20.20;99.90;;;;;;6222059;23;20023;-90
2022/07/14 11:02:13;;;;;;;0.10;0.10;;;20.10;99.90;;;;;;6219953;23;20021;-90
2022/07/14 11:05:00;;;;;;;0.20;0.20;;;20.10;99.90;;;;;;6217038;23;20016;-93
2022/07/14 11:07:43;;;;;;;0.10;0.10;;;20.10;99.90;;;;;;6216711;23;20024;-93
2022/07/14 11:10:18;;;;;;;0.20;0.20;;;20.00;99.90;;;;;;6217318;23;20027;-91
2022/07/14 11:13:05;;;;;;;0.20;0.20;;;20.00;99.90;;;;;;6218218;23;20028;-95
2022/07/14 11:15:38;;;;;;;0.10;0.10;;;20.00;99.90;;;;;;6215263;23;20024;-92
2022/07/14 11:18:24;;;;;;;0.15;0.15;;;19.90;99.90;;;;;;6215098;23;20036;-94
2022/07/14 11:21:13;;;;;;;0.20;0.20;;;19.90;99.90;;;;;;6216371;23;20051;-90
2022/07/14 11:23:50;;;;;;;0.10;0.10;;;19.90;99.90;;;;;;6202390;23;20361;-91
2022/07/14 11:26:40;;;;;;;0.20;0.20;;;19.80;99.90;;;;;;6212084;23;20047;-90
2022/07/14 11:29:09;;;;;;;0.20;0.20;;;19.90;99.90;;;;;;6213310;23;20068;-93
2022/07/14 11:32:00;;;;;;;0.20;0.20;;;20.10;99.90;;;;;;6220695;23;20054;-93
2022/07/14 11:37:16;;;;;;;0.20;0.20;;;20.20;99.90;;;;;;6216619;23;20020;-94
2022/07/14 11:39:44;;;;;;;0.20;0.20;;;20.30;99.90;;;;;;6211493;23;20027;-87
2022/07/14 11:42:13;;;;;;;0.20;0.20;;;20.40;99.90;;;;;;6215168;23;20013;-93
2022/07/14 11:44:39;;;;;;;0.10;0.10;;;20.50;99.90;;;;;;6210574;23;20494;-88
2022/07/14 11:47:29;;;;;;;0.20;0.20;;;20.60;99.90;;;;;;6212060;23;20024;-90
2022/07/14 11:49:56;;;;;;;0.20;0.20;;;20.70;99.90;;;;;;6211048;23;20099;-90
2022/07/14 11:52:26;;;;;;;0.13;0.13;;;20.80;99.90;;;;;;6214246;23;20426;-91
2022/07/14 11:54:57;;;;;;;0.20;0.20;;;21.00;99.90;;;;;;6226803;23;20020;-90
2022/07/14 11:57:23;;;;;;;0.20;0.20;;;21.00;99.90;;;;;;6224649;23;20023;-88
2022/07/14 11:59:49;;;;;;;0.13;0.13;;;21.00;99.90;;;;;;6216558;23;20080;-93
2022/07/14 12:02:20;;;;;;;0.15;0.15;;;21.10;99.90;;;;;;6217234;23;20051;-85
2022/07/14 12:04:58;;;;;;;0.20;0.20;;;20.90;99.90;;;;;;6218925;23;20020;-91
2022/07/14 12:07:43;;;;;;;0.20;0.20;;;20.80;99.90;;;;;;6222407;23;20044;-91
2022/07/14 12:10:13;;;;;;;0.20;0.20;;;20.60;99.90;;;;;;6217403;23;20096;-90
2022/07/14 12:12:48;;;;;;;0.20;0.20;;;20.50;99.90;;;;;;6221664;23;20020;-91
2022/07/14 12:15:24;;;;;;;0.20;0.20;;;20.40;99.90;;;;;;6219733;23;20035;-92
2022/07/14 12:17:53;;;;;;;0.20;0.20;;;20.30;99.90;;;;;;6215053;23;20020;-93
2022/07/14 12:20:19;;;;;;;0.20;0.20;;;20.20;99.90;;;;;;6214498;23;20457;-91
2022/07/14 12:22:55;;;;;;;0.20;0.20;;;20.20;99.90;;;;;;6218126;23;20020;-90
2022/07/14 12:25:25;;;;;;;0.20;0.20;;;20.40;99.90;;;;;;6217413;23;20519;-91
2022/07/14 12:27:51;;;;;;;0.20;0.20;;;20.60;99.90;;;;;;6216305;23;20044;-93
2022/07/14 12:30:17;;;;;;;0.20;0.20;;;20.80;99.90;;;;;;6218651;23;20024;-91
2022/07/14 12:32:51;;;;;;;0.20;0.20;;;21.00;99.90;;;;;;6217028;23;20063;-92
2022/07/14 12:35:18;;;;;;;0.20;0.20;;;21.00;99.90;;;;;;6221683;23;20063;-85
2022/07/14 12:37:44;;;;;;;0.20;0.20;;;21.10;99.90;;;;;;6225102;23;20021;-92
2022/07/14 12:40:12;;;;;;;0.20;0.20;;;21.10;99.90;;;;;;6221519;23;20055;-92
2022/07/14 12:42:37;;;;;;;0.10;0.10;;;21.10;99.90;;;;;;6218493;23;20020;-90
2022/07/14 12:45:07;;;;;;;0.20;0.20;;;21.00;99.90;;;;;;6218395;23;20020;-92
2022/07/14 12:47:49;;;;;;;0.20;0.20;;;20.80;99.90;;;;;;6216540;23;20052;-92
2022/07/14 12:50:20;;;;;;;0.20;0.20;;;20.70;99.90;;;;;;6217358;23;20012;-91
2022/07/14 12:52:53;;;;;;;;;;;20.60;99.90;;;;;;6215407;23;20025;-92
2022/07/14 12:55:44;;;;;;;0.20;0.20;;;20.60;99.90;;;;;;6216000;23;19916;-85
2022/07/14 12:58:12;;;;;;;0.13;0.13;;;20.50;99.90;;;;;;6214364;23;20445;-90
2022/07/14 13:00:39;;;;;;;0.10;0.10;;;20.50;99.90;;;;;;6213092;23;20024;-90
2022/07/14 13:03:19;;;;;;;0.10;0.10;;;20.30;99.90;;;;;;6215427;23;20934;-88
2022/07/14 13:05:57;;;;;;;0.20;0.20;;;20.40;99.90;;;;;;6216260;23;20082;-90
2022/07/14 13:08:32;;;;;;;0.10;0.10;;;20.30;99.90;;;;;;6215562;23;20395;-88
2022/07/14 13:10:59;;;;;;;0.20;0.20;;;20.20;99.90;;;;;;6216511;23;20016;-89
2022/07/14 13:13:34;;;;;;;0.20;0.20;;;20.10;99.90;;;;;;6214894;23;20492;-87
2022/07/14 13:16:18;;;;;;;0.20;0.20;;;20.00;99.90;;;;;;6215640;23;20026;-90
2022/07/14 13:19:03;;;;;;;0.20;0.20;;;20.10;99.90;;;;;;6215175;23;20020;-92
2022/07/14 13:21:50;;;;;;;0.20;0.20;;;20.10;99.90;;;;;;6214558;23;20020;-85
2022/07/14 13:24:37;;;;;;;0.20;0.20;;;20.10;99.90;;;;;;6211826;23;20157;-90
2022/07/14 13:27:14;;;;;;;0.20;0.20;;;20.40;99.90;;;;;;6215682;23;20042;-92
2022/07/14 13:29:47;;;;;;;0.20;0.20;;;20.60;99.90;;;;;;6216307;23;20048;-95
2022/07/14 13:32:13;;;;;;;0.20;0.20;;;20.70;99.90;;;;;;6220929;23;20418;-90
2022/07/14 13:34:40;;;;;;;0.20;0.20;;;21.00;99.90;;;;;;6221394;23;20020;-90
2022/07/14 13:37:07;;;;;;;0.20;0.20;;;21.10;99.90;;;;;;6217756;23;20013;-93
2022/07/14 13:39:34;;;;;;;0.20;0.20;;;21.20;99.90;;;;;;6215579;23;20048;-88
2022/07/14 13:42:01;;;;;;;0.20;0.20;;;21.10;99.90;;;;;;6218647;23;20432;-92
2022/07/14 13:44:28;;;;;;;0.20;0.20;;;21.00;99.90;;;;;;6218276;23;20035;-93
2022/07/14 13:46:55;;;;;;;0.20;0.20;;;21.00;99.90;;;;;;6216363;23;20016;-88
2022/07/14 13:49:21;;;;;;;0.20;0.20;;;20.90;99.90;;;;;;6214024;23;20039;-92
2022/07/14 13:54:31;;;;;;;0.20;0.20;;;20.60;99.90;;;;;;6212860;23;20117;-87
2022/07/14 13:56:57;;;;;;;0.20;0.20;;;20.50;99.90;;;;;;6213838;23;20016;-92
2022/07/14 13:59:23;;;;;;;0.20;0.20;;;20.50;99.90;;;;;;6216164;23;20017;-92
2022/07/14 14:01:49;;;;;;;0.20;0.20;;;20.50;99.90;;;;;;6213603;23;20017;-94